Weather History for Monett, MO

Change the Weather History Date:

Tuesday, December 4, 2012

  Actual Average (KJLN) Record (KJLN)
Temperature  
Mean Temperature 50 °F 40 °F  
Max Temperature 57 °F 50 °F 74 °F (2001)
Min Temperature 42 °F 30 °F 11 °F (2006)
Degree Days  
Heating Degree Days 16 25  
Month to date heating degree days 97  
Since 1 July heating degree days 854  
Cooling Degree Days 0 0  
Month to date cooling degree days 0  
Year to date cooling degree days 1698  
Moisture  
Dew Point 39 °F    
Average Humidity 67    
Maximum Humidity 100    
Minimum Humidity 41    
Precipitation  
Precipitation 0.68 in 0.10 in 3.59 in (1999)
Month to date precipitation 0.43  
Year to date precipitation 44.16  
Sea Level Pressure  
Sea Level Pressure 30.18 in    
Wind  
Wind Speed 8 mph (NNE)    
Max Wind Speed 18 mph    
Max Gust Speed 24 mph    
Visibility 10 miles    
Events Rain , Thunderstorm    
T = Trace of Precipitation, MM = Missing Value Source: NWS Daily Summary

Daily Weather History Graph

Daily Weather History Graph

Search for Another Location

Airport:

Trip Planner

Search our weather history database for the weather conditions in past years. The results will help you decide how hot, cold, wet, or windy it might be!

Date:

Astronomy

Dec. 04, 2012 Rise Set
Actual Time 7:13 AM CST 4:59 PM CST
Civil Twilight 6:44 AM CST 5:27 PM CST
Nautical Twilight 6:12 AM CST 6:00 PM CST
Astronomical Twilight 5:41 AM CST 6:31 PM CST
Moon 10:41 PM CST (12/4) 11:13 AM CST (12/4)
Length of Visible Light 10h 43m
Length of Day
9h 45m
Waning Gibbous, 69% of the Moon is Illuminated
Dec 4
Waning Gibbous
Dec 6
Last Quarter
Dec 13
New
Dec 19
First Quarter
Dec 28
Full

Hourly Weather History & Observations

Time (CST) Temp. Windchill Dew Point Humidity Pressure Visibility Wind Dir Wind Speed Gust Speed Precip Events Conditions
12:15 AM 57.2 °F - 55.4 °F 94% 30.00 in 4.0 mi WSW 6.9 mph - 0.19 in Rain , Thunderstorm Heavy Thunderstorms and Rain
12:35 AM 57.2 °F - 55.4 °F 94% 29.97 in 3.0 mi Calm Calm - 0.45 in Rain , Thunderstorm Thunderstorms and Rain
12:55 AM 57.2 °F - 55.4 °F 94% 29.98 in 3.0 mi Calm Calm - 0.60 in Rain , Thunderstorm Heavy Thunderstorms and Rain
1:15 AM 57.2 °F - 55.4 °F 94% 29.98 in 7.0 mi Calm Calm - 0.02 in Rain , Thunderstorm Rain
1:35 AM 55.4 °F - 55.4 °F 100% 29.99 in 7.0 mi NNW 6.9 mph - 0.07 in Rain Light Rain
1:55 AM 53.6 °F - 53.6 °F 100% 30.00 in 10.0 mi North 13.8 mph - 0.08 in Thunderstorm Overcast
2:15 AM 51.8 °F - 51.8 °F 100% 30.00 in 10.0 mi North 12.7 mph 18.4 mph N/A Thunderstorm Overcast
2:35 AM 51.8 °F - 50.0 °F 94% 30.01 in 10.0 mi North 12.7 mph - N/A Rain Light Rain
2:55 AM 51.8 °F - 50.0 °F 94% 30.03 in 10.0 mi North 12.7 mph - N/A Rain Light Rain
3:15 AM 50.0 °F - 48.2 °F 94% 30.03 in 10.0 mi North 18.4 mph 24.2 mph N/A Rain Light Rain
3:35 AM 50.0 °F - 48.2 °F 94% 30.03 in 10.0 mi North 12.7 mph 17.3 mph N/A   Overcast
3:55 AM 50.0 °F - 48.2 °F 94% 30.04 in 10.0 mi North 10.4 mph - N/A   Overcast
4:15 AM 50.0 °F - 48.2 °F 94% 30.04 in 10.0 mi North 9.2 mph - N/A   Overcast
4:35 AM 50.0 °F - 46.4 °F 87% 30.05 in 10.0 mi North 11.5 mph 17.3 mph N/A Thunderstorm Overcast
4:55 AM 50.0 °F - 46.4 °F 87% 30.07 in 10.0 mi North 12.7 mph 17.3 mph N/A   Overcast
5:15 AM 50.0 °F - 44.6 °F 82% 30.06 in 10.0 mi North 13.8 mph 18.4 mph N/A   Overcast
5:35 AM 50.0 °F - 44.6 °F 82% 30.07 in 10.0 mi North 15.0 mph 20.7 mph N/A   Overcast
5:55 AM 50.0 °F - 44.6 °F 82% 30.08 in 10.0 mi North 9.2 mph - N/A   Overcast
6:15 AM 50.0 °F - 44.6 °F 82% 30.09 in 10.0 mi North 11.5 mph - N/A   Overcast
6:35 AM 50.0 °F - 44.6 °F 82% 30.11 in 10.0 mi North 11.5 mph - N/A   Overcast
6:55 AM 50.0 °F - 42.8 °F 76% 30.11 in 10.0 mi North 13.8 mph 17.3 mph N/A   Overcast
7:15 AM 50.0 °F - 42.8 °F 76% 30.13 in 10.0 mi North 12.7 mph - N/A   Overcast
7:35 AM 46.4 °F 42.4 °F 41.0 °F 81% 30.15 in 10.0 mi North 8.1 mph - N/A   Mostly Cloudy
7:55 AM 46.4 °F 41.1 °F 41.0 °F 81% 30.15 in 10.0 mi North 11.5 mph - N/A   Clear
8:15 AM 46.4 °F 41.5 °F 41.0 °F 81% 30.16 in 10.0 mi North 10.4 mph - N/A   Clear
8:35 AM 46.4 °F 41.1 °F 41.0 °F 81% 30.17 in 10.0 mi North 11.5 mph - N/A   Clear
8:55 AM 46.4 °F 41.5 °F 39.2 °F 76% 30.18 in 10.0 mi North 10.4 mph - N/A   Clear
9:15 AM 46.4 °F 40.1 °F 39.2 °F 76% 30.19 in 10.0 mi North 15.0 mph - N/A   Clear
9:55 AM 50.0 °F - 37.4 °F 62% 30.21 in 10.0 mi NNE 11.5 mph 17.3 mph N/A   Clear
10:15 AM 51.8 °F - 37.4 °F 58% 30.21 in 10.0 mi NNE 10.4 mph - N/A   Clear
10:35 AM 51.8 °F - 37.4 °F 58% 30.21 in 10.0 mi NNE 11.5 mph 18.4 mph N/A   Clear
10:55 AM 53.6 °F - 35.6 °F 51% 30.21 in 10.0 mi NNE 12.7 mph 19.6 mph N/A   Clear
11:15 AM 53.6 °F - 35.6 °F 51% 30.20 in 10.0 mi NNE 11.5 mph 19.6 mph N/A   Clear
11:35 AM 53.6 °F - 35.6 °F 51% 30.21 in 10.0 mi NNE 11.5 mph 18.4 mph N/A   Clear
11:55 AM 55.4 °F - 35.6 °F 47% 30.21 in 10.0 mi NNE 10.4 mph - N/A   Clear
12:15 PM 55.4 °F - 35.6 °F 47% 30.21 in 10.0 mi NNE 10.4 mph 18.4 mph N/A   Clear
12:35 PM 55.4 °F - 35.6 °F 47% 30.22 in 10.0 mi North 15.0 mph - N/A   Clear
12:55 PM 55.4 °F - 35.6 °F 47% 30.22 in 10.0 mi North 9.2 mph - N/A   Clear
1:15 PM 55.4 °F - 35.6 °F 47% 30.21 in 10.0 mi NNE 11.5 mph 16.1 mph N/A   Clear
1:35 PM 55.4 °F - 35.6 °F 47% 30.21 in 10.0 mi North 11.5 mph - N/A   Clear
1:55 PM 57.2 °F - 35.6 °F 44% 30.21 in 10.0 mi North 11.5 mph - N/A   Clear
2:15 PM 55.4 °F - 35.6 °F 47% 30.20 in 10.0 mi NNE 9.2 mph - N/A   Clear
2:35 PM 55.4 °F - 35.6 °F 47% 30.21 in 10.0 mi North 12.7 mph 16.1 mph N/A   Clear
2:55 PM 55.4 °F - 33.8 °F 44% 30.22 in 10.0 mi North 8.1 mph - N/A   Clear
3:15 PM 55.4 °F - 33.8 °F 44% 30.22 in 10.0 mi North 10.4 mph - N/A   Clear
3:35 PM 55.4 °F - 33.8 °F 44% 30.23 in 10.0 mi NNE 10.4 mph - N/A   Clear
3:55 PM 55.4 °F - 32.0 °F 41% 30.25 in 10.0 mi North 10.4 mph - N/A   Clear
4:15 PM 53.6 °F - 33.8 °F 47% 30.25 in 10.0 mi NNE 6.9 mph - N/A   Clear
4:35 PM 53.6 °F - 33.8 °F 47% 30.26 in 10.0 mi NNE 3.5 mph - N/A   Clear
4:55 PM 51.8 °F - 33.8 °F 50% 30.25 in 10.0 mi NNE 3.5 mph - N/A   Clear
5:15 PM 50.0 °F - 33.8 °F 54% 30.26 in 10.0 mi NNE 3.5 mph - N/A   Clear
5:35 PM 50.0 °F - 33.8 °F 54% 30.26 in 10.0 mi North 3.5 mph - N/A   Clear
5:55 PM 50.0 °F - 32.0 °F 50% 30.26 in 10.0 mi North 3.5 mph - N/A   Clear
6:15 PM 48.2 °F - 32.0 °F 54% 30.26 in 10.0 mi North 3.5 mph - N/A   Clear
6:35 PM 46.4 °F 45.2 °F 32.0 °F 57% 30.26 in 10.0 mi NNE 3.5 mph - N/A   Clear
6:55 PM 46.4 °F 44.3 °F 32.0 °F 57% 30.26 in 10.0 mi NNE 4.6 mph - N/A   Clear
7:15 PM 46.4 °F 44.3 °F 32.0 °F 57% 30.27 in 10.0 mi North 4.6 mph - N/A   Clear
7:35 PM 44.6 °F 43.1 °F 32.0 °F 61% 30.27 in 10.0 mi NE 3.5 mph - N/A   Clear
7:55 PM 44.6 °F 43.1 °F 32.0 °F 61% 30.27 in 10.0 mi ENE 3.5 mph - N/A   Clear
8:15 PM 44.6 °F 43.1 °F 32.0 °F 61% 30.27 in 10.0 mi NNE 3.5 mph - N/A   Clear
8:35 PM 44.6 °F - 32.0 °F 61% 30.28 in 10.0 mi Calm Calm - N/A   Clear
8:55 PM 42.8 °F - 32.0 °F 66% 30.29 in 10.0 mi Calm Calm - N/A   Clear
9:15 PM 44.6 °F - 32.0 °F 61% 30.30 in 10.0 mi Calm Calm - N/A   Clear
9:35 PM 42.8 °F 41.1 °F 32.0 °F 66% 30.31 in 10.0 mi East 3.5 mph - N/A   Clear
9:55 PM 42.8 °F 41.1 °F 32.0 °F 66% 30.31 in 10.0 mi East 3.5 mph - N/A   Clear
10:15 PM 42.8 °F 40.1 °F 32.0 °F 66% 30.31 in 10.0 mi East 4.6 mph - N/A   Clear
10:35 PM 46.4 °F 44.3 °F 30.2 °F 53% 30.32 in 10.0 mi East 4.6 mph - N/A   Clear
10:55 PM 42.8 °F 40.1 °F 32.0 °F 66% 30.32 in 10.0 mi ENE 4.6 mph - N/A   Clear
11:15 PM 44.6 °F 42.2 °F 32.0 °F 61% 30.32 in 10.0 mi East 4.6 mph - N/A   Clear
11:35 PM 44.6 °F 43.1 °F 32.0 °F 61% 30.31 in 10.0 mi East 3.5 mph - N/A   Clear
11:55 PM 44.6 °F 43.1 °F 32.0 °F 61% 30.31 in 10.0 mi East 3.5 mph - N/A   Clear